createdAt,value
2022-08-26T00:04:15.827Z,37.73
2022-08-26T00:14:27.102Z,37.55
2022-08-26T00:24:36.871Z,37.17
2022-08-26T00:34:43.566Z,37.10
2022-08-26T00:44:45.584Z,36.60
2022-08-26T00:55:02.268Z,36.91
2022-08-26T01:05:09.797Z,36.67
2022-08-26T01:15:16.806Z,36.97
2022-08-26T01:25:28.391Z,37.41
2022-08-26T01:35:31.577Z,37.11
2022-08-26T01:45:40.648Z,37.32
2022-08-26T01:55:45.222Z,37.50
2022-08-26T02:05:59.325Z,37.25
2022-08-26T02:16:05.204Z,37.58
2022-08-26T02:26:20.445Z,36.80
2022-08-26T02:36:28.839Z,36.43
2022-08-26T02:46:35.909Z,36.33
2022-08-26T02:56:40.523Z,36.29
2022-08-26T03:06:42.591Z,36.34
2022-08-26T03:16:54.536Z,37.31
2022-08-26T03:26:58.389Z,37.45
2022-08-26T03:37:02.469Z,38.13
2022-08-26T03:47:06.965Z,38.69
2022-08-26T03:57:09.387Z,39.14
2022-08-26T04:07:13.903Z,39.24
2022-08-26T04:17:19.961Z,39.79
2022-08-26T04:27:32.359Z,40.83
2022-08-26T04:37:44.222Z,44.75
2022-08-26T04:47:50.374Z,41.84
2022-08-26T04:57:54.903Z,38.91
2022-08-26T05:07:57.680Z,38.38
2022-08-26T05:18:03.644Z,36.92
2022-08-26T05:28:09.542Z,37.18
2022-08-26T05:38:21.671Z,36.97
2022-08-26T05:48:29.520Z,34.97
2022-08-26T05:58:36.966Z,35.02
2022-08-26T06:08:39.084Z,36.02
2022-08-26T06:18:44.740Z,34.95
2022-08-26T06:28:47.862Z,34.72
2022-08-26T06:38:53.012Z,35.61
2022-08-26T06:48:58.458Z,35.28
2022-08-26T06:59:03.327Z,35.20
2022-08-26T07:09:10.376Z,34.89
2022-08-26T07:19:12.789Z,34.54
2022-08-26T07:29:17.169Z,34.69
2022-08-26T07:39:24.501Z,34.66
2022-08-26T07:49:31.644Z,35.00
2022-08-26T07:59:34.537Z,34.28
2022-08-26T08:09:40.695Z,33.88
2022-08-26T08:19:52.479Z,34.57
2022-08-26T08:29:57.980Z,34.45
2022-08-26T08:40:03.460Z,35.03
2022-08-26T08:50:18.993Z,34.86
2022-08-26T09:00:30.252Z,35.45
2022-08-26T09:10:47.962Z,35.96
2022-08-26T09:21:08.395Z,36.80
2022-08-26T09:31:16.919Z,36.58
2022-08-26T09:41:25.072Z,35.63
2022-08-26T09:51:39.161Z,35.39
2022-08-26T10:01:44.952Z,33.63
2022-08-26T10:11:54.003Z,32.66
2022-08-26T10:22:06.598Z,31.66
2022-08-26T10:32:18.606Z,31.43
2022-08-26T10:42:39.399Z,29.97
2022-08-26T10:52:54.670Z,30.07
2022-08-26T11:03:53.368Z,30.43
2022-08-26T11:14:07.589Z,30.72
2022-08-26T11:24:11.174Z,29.89
2022-08-26T11:34:15.205Z,30.50
2022-08-26T11:44:25.241Z,30.55
2022-08-26T11:54:35.527Z,30.47
2022-08-26T12:04:41.783Z,29.09
2022-08-26T12:14:44.512Z,28.82
2022-08-26T12:24:54.190Z,27.26
2022-08-26T12:34:56.322Z,26.98
2022-08-26T12:45:00.401Z,27.03
2022-08-26T12:55:11.927Z,27.86
2022-08-26T13:05:35.292Z,26.11
2022-08-26T13:15:52.725Z,27.63
2022-08-26T13:26:00.394Z,27.48
2022-08-26T13:36:05.359Z,27.55
2022-08-26T13:46:07.434Z,27.41
2022-08-26T13:56:12.227Z,27.23
2022-08-26T14:06:19.703Z,27.57
2022-08-26T14:16:26.243Z,27.45
2022-08-26T14:26:32.147Z,28.07
2022-08-26T14:36:36.862Z,27.57
2022-08-26T14:46:50.125Z,27.22
2022-08-26T14:57:00.592Z,26.75
2022-08-26T15:07:03.736Z,26.90
2022-08-26T15:17:09.715Z,26.96
2022-08-26T15:27:16.490Z,27.61
2022-08-26T15:37:19.688Z,27.91
2022-08-26T15:47:26.960Z,27.38
2022-08-26T15:57:30.657Z,27.40
2022-08-26T16:07:35.368Z,28.14
2022-08-26T16:17:40.945Z,28.15
2022-08-26T16:27:46.754Z,28.21
2022-08-26T16:37:56.904Z,28.49
2022-08-26T16:48:01.218Z,28.67
2022-08-26T16:58:05.812Z,29.01
2022-08-26T17:08:11.848Z,29.17
2022-08-26T17:18:16.707Z,29.09
2022-08-26T17:28:24.009Z,29.14
2022-08-26T17:38:26.244Z,29.57
2022-08-26T17:48:28.682Z,29.90
2022-08-26T17:58:32.954Z,30.34
2022-08-26T18:08:42.259Z,30.95
2022-08-26T18:18:48.027Z,31.66
2022-08-26T18:28:52.648Z,31.79
2022-08-26T18:38:57.430Z,31.99
2022-08-26T18:49:02.463Z,32.21
2022-08-26T18:59:07.752Z,32.43
2022-08-26T19:09:14.759Z,32.77
2022-08-26T19:19:24.377Z,32.91
2022-08-26T19:29:29.387Z,33.47
2022-08-26T19:39:39.700Z,33.78
2022-08-26T19:49:46.462Z,33.68
2022-08-26T19:59:51.769Z,33.86
2022-08-26T20:09:53.798Z,33.97
2022-08-26T20:20:32.730Z,34.15
2022-08-26T20:30:36.296Z,34.34
2022-08-26T20:40:42.522Z,34.59
2022-08-26T20:50:46.447Z,34.87
2022-08-26T21:00:48.743Z,35.54
2022-08-26T21:10:51.557Z,36.96
2022-08-26T21:20:57.513Z,37.26
2022-08-26T21:31:06.432Z,37.43
2022-08-26T21:41:19.522Z,37.86
2022-08-26T21:51:26.263Z,38.46
2022-08-26T22:01:35.120Z,39.17
2022-08-26T22:11:39.574Z,40.43
2022-08-26T22:21:46.748Z,40.80
2022-08-26T22:31:54.548Z,41.85
2022-08-26T22:42:00.781Z,43.21
2022-08-26T22:52:05.147Z,45.39
2022-08-26T23:02:07.369Z,47.36
2022-08-26T23:12:16.094Z,49.55
2022-08-26T23:22:20.931Z,51.42
2022-08-26T23:32:26.455Z,52.55
2022-08-26T23:42:28.977Z,54.04
2022-08-26T23:52:55.647Z,56.10
